Terminal Aerodrome Forecast
Issued by NWS Green Bay, WI

Home | Current Version | Previous Version | Graphics & Text | Print | Product List | Glossary On
Versions: 1 2 3 4 5 6 7 8 9 10 11 12 13 14 15 16 17 18 19 20 21 22 23 24 25 26 27 28 29 30 31 32 33 34
200
FTUS43 KGRB 221125 AAB
TAFGRB
TAF AMD
KGRB 221125Z 2211/2312 36005KT P6SM VCSH BKN007 OVC012
      TEMPO 2212/2216 SCT007 OVC012
     FM221600 01004KT P6SM OVC025
     FM221800 35003KT P6SM SCT035 BKN070
     FM222200 24004KT P6SM SCT070 BKN140
     FM230100 20003KT P6SM SCT070
     FM230800 VRB02KT 5SM BR FEW025 BKN200=

USA.gov is the U.S. government's official web portal to all federal, state and local government web resources and services.